SVBC/BLA METAR and TAF weather

Enter ICAO airport designator
Station Type Date Time Source
SVBC METAR 2020/02/24 07:02 UTC NOAA

SVBC 240702Z AUTO 13002KT NCD 24/25 Q1012


Station Type Date Time Source
SVBC Decoded METAR 2020/02/24 07:02 UTC NOAA

Barcelona, Venezuela (SVBC) 10-07N 064-41W 7M
Feb 24, 2020 - 02:02 AM EST / 2020.02.24 0702 UTC
Wind: from the SE (130 degrees) at 2 MPH (2 KT):0
Temperature: 75 F (24 C)
Dew Point: 77 F (25 C)
Relative Humidity: 106%
Pressure (altimeter): 29.88 in. Hg (1012 hPa)
ob: SVBC 240702Z AUTO 13002KT NCD 24/25 Q1012
cycle: 7

Station Type Date Time Source
SVBC TAF 2020/02/24 06:03 UTC NOAA

TAF TAF SVBC 240400Z 2406/2506 00000KT 9999 SCT010 TX33/18Z TN26/08Z
TEMPO 2406/2410 9000 DZ SCT010 BKN060

Example: see airport list